1A0 weather

Dallas Bay Sky Park Airport
Chattanooga, Tennessee, United States

Public forecast

Using degrees Fahrenheit for public forecast. Weather courtesy of forecast.io.

METAR (pilot weather report)

Closest report is Lovell Field, 9.2 nm (17.1 km) S. Retrieved 2019/08/19 18:53 UTC (36 minutes ago):

KCHA 191853Z VRB05KT 10SM SCT060 BKN200 36/20 A3003 RMK AO2 LTG DSNT S AND SW SLP158 CB DSNT S AND SW AND NW T03610200

TAF (pilot weather forecast)

Closest forecast is Lovell Field, 9.2 nm (17.1 km) S. Retrieved 2019/08/19 18:24 UTC (1 hour ago):

TAF KCHA 191722Z 1918/2018 VRB04KT P6SM SCT060 FM200200 00000KT P6SM SCT250 FM201500 VRB04KT P6SM SCT060